Language: 


Des rapports , des résumés tant et plus, au choix de chacun....


Données statistiques de la station
Quotidien Rapport Février 16, 2017 Unités:  Métrique    Anglais   les deux
« Précédent Jour
Suivant Jour »
Quotidien Hebdomadaire Mensuel Annuel Actuel
  Haut: Bas: Moyen:
Température: 12.1 °C 0.0 °C 5.7 °C
Pt de rosée: 11.3 °C 0.8 °C 5.2 °C
Humidité: 98 % 0 % 96 %
Vitesse du vent: 17.7 km/h 0.0 km/h 5.1 km/h
Rafales: 20.6 km/h - -
Vent:- - West
Pression: 1031.0 hPa 0.0 hPa -
Précipitation: 0.0 mm    
Historical Graphs
 
 
Données statistiques pour Février 16, 2017
Heure Température Point de rosée Pression Vent Vitesse du vent Refales Humidité Pluie (taux horaire)
00:03 4.2 °C 3.5 °C 1030.0 hPa SSW 4.3 km/h 5.0 km/h 95 % 0.0 mm
00:08 4.2 °C 3.5 °C 1030.0 hPa Calm   5.0 km/h 95 % 0.0 mm
00:13 4.1 °C 3.4 °C 1030.0 hPa Calm   4.3 km/h 95 % 0.0 mm
00:18 4.0 °C 3.4 °C 1030.0 hPa Calm   3.2 km/h 96 % 0.0 mm
00:23 4.0 °C 3.4 °C 1030.0 hPa Calm   4.7 km/h 96 % 0.0 mm
00:28 4.0 °C 3.4 °C 1030.0 hPa Calm   4.7 km/h 96 % 0.0 mm
00:33 3.9 °C 3.3 °C 1030.0 hPa Calm     96 % 0.0 mm
00:38 3.9 °C 3.3 °C 1030.0 hPa Calm   1.4 km/h 96 % 0.0 mm
00:43 3.8 °C 3.4 °C 1030.0 hPa Calm   1.4 km/h 97 % 0.0 mm
00:48 3.9 °C 3.5 °C 1030.0 hPa Calm   3.2 km/h 97 % 0.0 mm
00:53 3.9 °C 3.5 °C 1030.0 hPa SSW 3.5 km/h 3.5 km/h 97 % 0.0 mm
00:58 3.8 °C 3.4 °C 1030.0 hPa WSW 3.2 km/h 3.5 km/h 97 % 0.0 mm
01:03 3.9 °C 3.5 °C 1030.0 hPa Calm   3.5 km/h 97 % 0.0 mm
01:08 3.9 °C 3.5 °C 1031.0 hPa Calm   3.2 km/h 97 % 0.0 mm
01:14 3.8 °C 3.4 °C 1031.0 hPa Calm     97 % 0.0 mm
01:19 3.7 °C 3.3 °C 1031.0 hPa Calm     97 % 0.0 mm
01:24 3.6 °C 3.2 °C 1031.0 hPa Calm     97 % 0.0 mm
01:29 3.6 °C 3.1 °C 1031.0 hPa Calm     97 % 0.0 mm
01:34 3.4 °C 3.0 °C 1031.0 hPa Calm     97 % 0.0 mm
01:39 3.3 °C 2.9 °C 1031.0 hPa Calm     97 % 0.0 mm
01:44 3.3 °C 2.9 °C 1031.0 hPa Calm     97 % 0.0 mm
01:49 3.2 °C 2.8 °C 1031.0 hPa Calm   3.2 km/h 97 % 0.0 mm
01:54 3.2 °C 2.8 °C 1030.0 hPa Calm   3.2 km/h 97 % 0.0 mm
01:59 3.6 °C 3.2 °C 1030.0 hPa Calm   4.3 km/h 98 % 0.0 mm
02:04 3.8 °C 3.6 °C 1030.0 hPa Calm   5.0 km/h 98 % 0.0 mm
02:09 4.0 °C 3.7 °C 1030.0 hPa West 2.1 km/h 5.0 km/h 98 % 0.0 mm
02:14 4.0 °C 3.7 °C 1030.0 hPa Calm   5.0 km/h 98 % 0.0 mm
02:19 4.0 °C 3.7 °C 1030.0 hPa Calm   3.5 km/h 98 % 0.0 mm
02:24 4.0 °C 3.7 °C 1031.0 hPa West 3.2 km/h 4.0 km/h 98 % 0.0 mm
02:29 3.8 °C 3.6 °C 1031.0 hPa Calm   5.5 km/h 98 % 0.0 mm
02:34 3.6 °C 3.3 °C 1031.0 hPa Calm   5.5 km/h 98 % 0.0 mm
02:39 3.7 °C 3.4 °C 1031.0 hPa Calm   1.4 km/h 98 % 0.0 mm
02:44 3.6 °C 3.3 °C 1031.0 hPa West 4.7 km/h 4.7 km/h 98 % 0.0 mm
02:49 3.3 °C 3.1 °C 1031.0 hPa West 3.5 km/h 5.5 km/h 98 % 0.0 mm
02:54 3.1 °C 2.7 °C 1030.0 hPa Calm   5.8 km/h 97 % 0.0 mm
02:59 2.9 °C 2.5 °C 1030.0 hPa West 4.3 km/h 5.8 km/h 97 % 0.0 mm
03:06 0.0 °C 2.1 °C 0.0 hPa West 1.4 km/h 4.3 km/h 0 % 0.0 mm
03:11 2.3 °C 1.8 °C 1030.0 hPa West 4.0 km/h 4.0 km/h 97 % 0.0 mm
03:16 2.3 °C 1.8 °C 1030.0 hPa Calm   4.0 km/h 97 % 0.0 mm
03:21 2.2 °C 1.7 °C 1030.0 hPa Calm   4.0 km/h 97 % 0.0 mm
03:26 2.1 °C 1.6 °C 1030.0 hPa Calm   4.0 km/h 97 % 0.0 mm
03:31 1.9 °C 1.7 °C 1030.0 hPa West 1.8 km/h 4.0 km/h 98 % 0.0 mm
03:36 2.1 °C 1.8 °C 1030.0 hPa Calm   4.3 km/h 98 % 0.0 mm
03:41 2.1 °C 1.8 °C 1030.0 hPa Calm   4.3 km/h 98 % 0.0 mm
03:51 2.1 °C 1.8 °C 1030.0 hPa Calm     98 % 0.0 mm
03:56 2.1 °C 1.8 °C 1030.0 hPa Calm   3.2 km/h 98 % 0.0 mm
04:01 2.3 °C 1.9 °C 1030.0 hPa Calm   3.2 km/h 98 % 0.0 mm
04:06 2.3 °C 2.1 °C 1030.0 hPa Calm   4.3 km/h 98 % 0.0 mm
04:11 2.7 °C 2.4 °C 1030.0 hPa Calm   4.3 km/h 98 % 0.0 mm
04:16 2.7 °C 2.4 °C 1030.0 hPa Calm   1.4 km/h 98 % 0.0 mm
04:21 2.8 °C 2.6 °C 1030.0 hPa Calm     98 % 0.0 mm
04:26 2.8 °C 2.6 °C 1030.0 hPa Calm     98 % 0.0 mm
04:31 2.8 °C 2.6 °C 1030.0 hPa Calm   2.6 km/h 98 % 0.0 mm
04:36 2.8 °C 2.6 °C 1030.0 hPa WSW 5.0 km/h 5.8 km/h 98 % 0.0 mm
04:41 2.9 °C 2.7 °C 1030.0 hPa Calm   5.8 km/h 98 % 0.0 mm
04:46 3.1 °C 2.8 °C 1030.0 hPa Calm   4.0 km/h 98 % 0.0 mm
04:47 3.1 °C 2.8 °C 1030.0 hPa Calm   4.0 km/h 98 % 0.0 mm
04:52 3.2 °C 2.9 °C 1030.0 hPa Calm   4.3 km/h 98 % 0.0 mm
04:57 3.3 °C 3.1 °C 1030.0 hPa West 4.3 km/h 4.3 km/h 98 % 0.0 mm
05:02 3.6 °C 3.2 °C 1030.0 hPa Calm   4.3 km/h 98 % 0.0 mm
05:07 3.7 °C 3.4 °C 1030.0 hPa Calm   4.3 km/h 98 % 0.0 mm
05:12 4.0 °C 3.7 °C 1030.0 hPa WNW 3.2 km/h 4.3 km/h 98 % 0.0 mm
05:17 4.1 °C 3.8 °C 1030.0 hPa West 1.4 km/h 4.3 km/h 98 % 0.0 mm
05:22 4.3 °C 4.0 °C 1030.0 hPa Calm   4.0 km/h 98 % 0.0 mm
05:27 4.5 °C 4.2 °C 1030.0 hPa Calm   4.3 km/h 98 % 0.0 mm
05:32 4.3 °C 4.0 °C 1030.0 hPa Calm   4.3 km/h 98 % 0.0 mm
05:37 4.0 °C 3.7 °C 1030.0 hPa Calm     98 % 0.0 mm
05:42 3.8 °C 3.6 °C 1030.0 hPa Calm     98 % 0.0 mm
05:47 3.7 °C 3.4 °C 1030.0 hPa Calm     98 % 0.0 mm
05:52 3.6 °C 3.2 °C 1030.0 hPa Calm     98 % 0.0 mm
05:57 3.4 °C 3.2 °C 1030.0 hPa Calm     98 % 0.0 mm
06:02 3.3 °C 3.1 °C 1030.0 hPa Calm     98 % 0.0 mm
06:07 3.2 °C 2.9 °C 1030.0 hPa Calm     98 % 0.0 mm
06:12 3.2 °C 2.9 °C 1030.0 hPa Calm     98 % 0.0 mm
06:17 2.9 °C 2.7 °C 1030.0 hPa Calm     98 % 0.0 mm
06:22 2.8 °C 2.6 °C 1030.0 hPa Calm     98 % 0.0 mm
06:27 2.7 °C 2.4 °C 1030.0 hPa Calm     98 % 0.0 mm
06:32 2.7 °C 2.4 °C 1030.0 hPa Calm     98 % 0.0 mm
06:37 2.6 °C 2.3 °C 1029.0 hPa Calm     98 % 0.0 mm
06:42 2.4 °C 2.2 °C 1029.0 hPa Calm     98 % 0.0 mm
06:47 2.3 °C 2.1 °C 1029.0 hPa Calm     98 % 0.0 mm
06:52 2.3 °C 1.9 °C 1029.0 hPa Calm     98 % 0.0 mm
06:57 2.1 °C 1.8 °C 1029.0 hPa Calm     98 % 0.0 mm
07:03 1.9 °C 1.6 °C 1029.0 hPa Calm     98 % 0.0 mm
07:08 1.7 °C 1.4 °C 1030.0 hPa Calm     98 % 0.0 mm
07:13 1.4 °C 1.2 °C 1030.0 hPa Calm     98 % 0.0 mm
07:18 1.4 °C 1.2 °C 1030.0 hPa Calm     98 % 0.0 mm
07:23 1.6 °C 1.3 °C 1029.0 hPa Calm     98 % 0.0 mm
07:28 1.6 °C 1.3 °C 1029.0 hPa Calm     98 % 0.0 mm
07:33 1.4 °C 1.1 °C 1029.0 hPa Calm     98 % 0.0 mm
07:38 1.4 °C 1.1 °C 1030.0 hPa Calm     98 % 0.0 mm
07:43 1.4 °C 1.1 °C 1030.0 hPa Calm     98 % 0.0 mm
07:48 1.4 °C 1.1 °C 1030.0 hPa Calm     98 % 0.0 mm
07:53 1.4 °C 1.1 °C 1030.0 hPa Calm     98 % 0.0 mm
07:58 1.3 °C 1.0 °C 1030.0 hPa Calm     98 % 0.0 mm
08:03 1.1 °C 0.8 °C 1030.0 hPa Calm     98 % 0.0 mm
08:08 1.1 °C 0.8 °C 1030.0 hPa Calm   5.0 km/h 98 % 0.0 mm
08:13 1.1 °C 0.8 °C 1030.0 hPa Calm   5.0 km/h 98 % 0.0 mm
08:18 1.2 °C 0.9 °C 1030.0 hPa Calm     98 % 0.0 mm
08:23 1.3 °C 1.0 °C 1030.0 hPa Calm     98 % 0.0 mm
08:28 1.4 °C 1.1 °C 1030.0 hPa Calm     98 % 0.0 mm
08:33 1.6 °C 1.3 °C 1030.0 hPa Calm     98 % 0.0 mm
08:38 1.6 °C 1.3 °C 1030.0 hPa Calm     98 % 0.0 mm
08:43 1.7 °C 1.4 °C 1030.0 hPa Calm     98 % 0.0 mm
08:48 1.8 °C 1.5 °C 1030.0 hPa Calm     98 % 0.0 mm
08:53 1.9 °C 1.6 °C 1030.0 hPa Calm     98 % 0.0 mm
08:58 1.9 °C 1.7 °C 1030.0 hPa Calm     98 % 0.0 mm
09:03 1.9 °C 1.7 °C 1030.0 hPa Calm   4.0 km/h 98 % 0.0 mm
09:08 2.1 °C 1.8 °C 1030.0 hPa Calm   4.0 km/h 98 % 0.0 mm
09:13 2.2 °C 1.9 °C 1030.0 hPa Calm   4.0 km/h 98 % 0.0 mm
09:18 2.3 °C 1.9 °C 1030.0 hPa Calm     98 % 0.0 mm
09:23 2.3 °C 2.1 °C 1030.0 hPa Calm     98 % 0.0 mm
09:28 2.4 °C 2.2 °C 1030.0 hPa Calm     98 % 0.0 mm
09:33 2.6 °C 2.3 °C 1030.0 hPa Calm     98 % 0.0 mm
09:38 2.7 °C 2.4 °C 1030.0 hPa Calm   1.4 km/h 98 % 0.0 mm
09:43 2.9 °C 2.7 °C 1030.0 hPa West 4.3 km/h 4.3 km/h 98 % 0.0 mm
09:48 3.1 °C 2.8 °C 1030.0 hPa West 7.6 km/h 7.9 km/h 98 % 0.0 mm
09:53 3.2 °C 2.9 °C 1031.0 hPa West 3.2 km/h 8.7 km/h 98 % 0.0 mm
09:58 3.3 °C 3.1 °C 1031.0 hPa Calm   8.7 km/h 98 % 0.0 mm
10:03 3.4 °C 3.2 °C 1031.0 hPa Calm   5.0 km/h 98 % 0.0 mm
10:08 3.7 °C 3.4 °C 1031.0 hPa Calm   4.0 km/h 98 % 0.0 mm
10:13 4.0 °C 3.7 °C 1031.0 hPa Calm   5.0 km/h 98 % 0.0 mm
10:18 4.2 °C 3.9 °C 1031.0 hPa Calm   5.0 km/h 98 % 0.0 mm
10:23 4.4 °C 4.1 °C 1030.0 hPa Calm   4.0 km/h 98 % 0.0 mm
10:28 4.6 °C 4.3 °C 1030.0 hPa Calm     98 % 0.0 mm
10:33 4.9 °C 4.6 °C 1030.0 hPa West 5.5 km/h 5.5 km/h 98 % 0.0 mm
10:38 5.2 °C 4.9 °C 1031.0 hPa Calm   5.5 km/h 98 % 0.0 mm
10:43 5.5 °C 5.2 °C 1031.0 hPa West 9.7 km/h 9.7 km/h 98 % 0.0 mm
10:48 5.9 °C 5.6 °C 1031.0 hPa WSW 4.7 km/h 9.7 km/h 98 % 0.0 mm
10:53 6.0 °C 5.7 °C 1030.0 hPa WNW 6.9 km/h 13.7 km/h 98 % 0.0 mm
10:58 6.2 °C 5.9 °C 1030.0 hPa WNW 6.9 km/h 13.7 km/h 98 % 0.0 mm
11:04 6.4 °C 6.1 °C 1030.0 hPa WSW 9.7 km/h 13.7 km/h 98 % 0.0 mm
11:08 6.4 °C 6.1 °C 1030.0 hPa WSW 13.7 km/h 15.8 km/h 98 % 0.0 mm
11:14 6.6 °C 6.3 °C 1030.0 hPa West 10.1 km/h 15.8 km/h 98 % 0.0 mm
11:19 6.7 °C 6.4 °C 1030.0 hPa West 5.5 km/h 11.6 km/h 98 % 0.0 mm
11:24 6.8 °C 6.4 °C 1030.0 hPa West 10.1 km/h 14.0 km/h 98 % 0.0 mm
11:29 6.8 °C 6.6 °C 1030.0 hPa WSW 6.1 km/h 14.0 km/h 98 % 0.0 mm
11:34 7.1 °C 6.8 °C 1030.0 hPa North 4.7 km/h 12.6 km/h 98 % 0.0 mm
11:39 7.2 °C 6.8 °C 1030.0 hPa West 9.3 km/h 14.8 km/h 98 % 0.0 mm
11:44 7.3 °C 6.9 °C 1030.0 hPa West 12.6 km/h 17.2 km/h 98 % 0.0 mm
11:49 7.3 °C 7.1 °C 1030.0 hPa West 12.2 km/h 17.2 km/h 98 % 0.0 mm
11:54 7.7 °C 7.3 °C 1030.0 hPa WSW 12.6 km/h 16.9 km/h 98 % 0.0 mm
11:59 7.7 °C 7.4 °C 1030.0 hPa WSW 12.2 km/h 16.6 km/h 98 % 0.0 mm
12:04 7.7 °C 7.4 °C 1030.0 hPa WSW 11.6 km/h 16.9 km/h 98 % 0.0 mm
12:09 7.8 °C 7.6 °C 1030.0 hPa West 12.2 km/h 16.9 km/h 98 % 0.0 mm
12:14 8.1 °C 7.7 °C 1030.0 hPa WSW 14.0 km/h 16.3 km/h 98 % 0.0 mm
12:19 7.9 °C 7.7 °C 1030.0 hPa West 17.7 km/h 20.6 km/h 98 % 0.0 mm
12:24 7.9 °C 7.7 °C 1030.0 hPa WSW 9.7 km/h 20.6 km/h 98 % 0.0 mm
12:29 7.9 °C 7.7 °C 1030.0 hPa West 16.6 km/h 16.9 km/h 98 % 0.0 mm
12:34 8.1 °C 7.7 °C 1030.0 hPa WSW 15.4 km/h 19.5 km/h 98 % 0.0 mm
12:39 8.1 °C 7.8 °C 1030.0 hPa WSW 16.6 km/h 19.5 km/h 98 % 0.0 mm
12:44 8.1 °C 7.8 °C 1030.0 hPa West 16.3 km/h 19.8 km/h 98 % 0.0 mm
12:49 8.4 °C 8.1 °C 1030.0 hPa WSW 16.3 km/h 19.8 km/h 98 % 0.0 mm
12:54 8.5 °C 8.2 °C 1030.0 hPa WSW 15.1 km/h 18.3 km/h 98 % 0.0 mm
12:59 8.5 °C 8.2 °C 1030.0 hPa WSW 10.5 km/h 18.3 km/h 98 % 0.0 mm
13:04 8.5 °C 8.2 °C 1030.0 hPa WSW 8.7 km/h 17.2 km/h 98 % 0.0 mm
13:09 8.4 °C 8.1 °C 1030.0 hPa WSW 13.7 km/h 16.3 km/h 98 % 0.0 mm
13:14 8.3 °C 8.1 °C 1030.0 hPa WSW 13.0 km/h 17.7 km/h 98 % 0.0 mm
13:19 8.2 °C 7.9 °C 1030.0 hPa WSW 8.7 km/h 17.7 km/h 98 % 0.0 mm
13:24 8.3 °C 8.1 °C 1029.0 hPa WSW 9.0 km/h 13.0 km/h 98 % 0.0 mm
13:29 8.3 °C 8.1 °C 1029.0 hPa WSW 10.5 km/h 11.9 km/h 98 % 0.0 mm
13:34 8.3 °C 8.1 °C 1029.0 hPa WSW 9.3 km/h 13.0 km/h 98 % 0.0 mm
13:39 8.3 °C 8.1 °C 1029.0 hPa WSW 11.1 km/h 13.0 km/h 98 % 0.0 mm
13:44 8.4 °C 8.1 °C 1029.0 hPa WSW 10.1 km/h 12.6 km/h 98 % 0.0 mm
13:49 8.6 °C 8.3 °C 1029.0 hPa West 10.5 km/h 11.1 km/h 98 % 0.0 mm
13:54 8.7 °C 8.4 °C 1028.0 hPa WSW 6.1 km/h 10.5 km/h 98 % 0.0 mm
13:59 8.9 °C 8.6 °C 1028.0 hPa WSW 5.8 km/h 10.1 km/h 98 % 0.0 mm
14:04 9.0 °C 8.7 °C 1028.0 hPa WSW 5.8 km/h 10.5 km/h 98 % 0.0 mm
14:09 9.2 °C 8.9 °C 1029.0 hPa WSW 9.3 km/h 10.5 km/h 98 % 0.0 mm
14:14 9.3 °C 9.0 °C 1029.0 hPa WSW 8.7 km/h 10.5 km/h 98 % 0.0 mm
14:19 9.4 °C 9.1 °C 1029.0 hPa WSW 11.9 km/h 11.9 km/h 98 % 0.0 mm
14:24 9.6 °C 9.3 °C 1030.0 hPa WSW 9.7 km/h 11.9 km/h 98 % 0.0 mm
14:29 9.6 °C 9.3 °C 1030.0 hPa WSW 8.7 km/h 11.9 km/h 98 % 0.0 mm
14:34 9.6 °C 9.3 °C 1030.0 hPa WSW 7.9 km/h 12.2 km/h 98 % 0.0 mm
14:39 9.7 °C 9.4 °C 1029.0 hPa WSW 7.9 km/h 12.2 km/h 98 % 0.0 mm
14:44 9.7 °C 9.4 °C 1029.0 hPa WSW 7.9 km/h 9.7 km/h 98 % 0.0 mm
14:49 9.7 °C 9.4 °C 1029.0 hPa West 5.8 km/h 10.5 km/h 98 % 0.0 mm
14:54 9.8 °C 9.5 °C 1029.0 hPa West 10.5 km/h 10.5 km/h 98 % 0.0 mm
14:59 9.7 °C 9.4 °C 1029.0 hPa West 12.6 km/h 13.0 km/h 98 % 0.0 mm
15:04 9.8 °C 9.3 °C 1029.0 hPa West 5.5 km/h 13.0 km/h 97 % 0.0 mm
15:09 9.9 °C 9.4 °C 1029.0 hPa WSW 10.5 km/h 12.6 km/h 97 % 0.0 mm
15:15 10.0 °C 9.6 °C 1029.0 hPa West 8.7 km/h 14.0 km/h 97 % 0.0 mm
15:20 10.0 °C 9.6 °C 1029.0 hPa West 12.2 km/h 14.0 km/h 97 % 0.0 mm
15:25 10.0 °C 9.6 °C 1028.0 hPa West 7.2 km/h 13.7 km/h 97 % 0.0 mm
15:30 10.0 °C 9.4 °C 1028.0 hPa WSW 8.7 km/h 13.7 km/h 96 % 0.0 mm
15:35 10.3 °C 9.7 °C 1028.0 hPa WSW 8.7 km/h 12.6 km/h 96 % 0.0 mm
15:40 10.5 °C 9.9 °C 1028.0 hPa WSW 9.0 km/h 12.6 km/h 96 % 0.0 mm
15:45 10.7 °C 10.1 °C 1028.0 hPa WSW 6.1 km/h 10.8 km/h 96 % 0.0 mm
15:50 10.7 °C 10.1 °C 1028.0 hPa WSW 6.9 km/h 10.1 km/h 96 % 0.0 mm
15:55 11.1 °C 10.3 °C 1028.0 hPa WSW 6.4 km/h 10.1 km/h 95 % 0.0 mm
16:05 12.1 °C 11.3 °C 1028.0 hPa West 7.9 km/h 9.0 km/h 95 % 0.0 mm
16:10 12.1 °C 11.1 °C 1028.0 hPa West 10.1 km/h 11.6 km/h 94 % 0.0 mm
16:15 11.9 °C 10.8 °C 1028.0 hPa West 10.5 km/h 12.2 km/h 93 % 0.0 mm
16:20 11.9 °C 10.7 °C 1028.0 hPa West 9.7 km/h 12.2 km/h 92 % 0.0 mm
16:25 11.8 °C 10.3 °C 1028.0 hPa West 9.7 km/h 12.2 km/h 90 % 0.0 mm
16:30 11.8 °C 10.0 °C 1028.0 hPa West 14.0 km/h 14.0 km/h 89 % 0.0 mm
16:35 11.8 °C 9.7 °C 1028.0 hPa WSW 8.7 km/h 14.0 km/h 87 % 0.0 mm
16:40 11.4 °C 9.2 °C 1028.0 hPa West 9.3 km/h 14.0 km/h 86 % 0.0 mm
16:45 11.1 °C 8.7 °C 1028.0 hPa West 5.8 km/h 14.0 km/h 85 % 0.0 mm
16:50 10.9 °C 8.4 °C 1028.0 hPa WSW 10.5 km/h 14.0 km/h 85 % 0.0 mm
16:55 10.6 °C 8.3 °C 1028.0 hPa WSW 9.7 km/h 14.0 km/h 86 % 0.0 mm
17:00 10.5 °C 8.2 °C 1028.0 hPa WSW 8.7 km/h 13.0 km/h 86 % 0.0 mm
17:05 10.2 °C 8.1 °C 1028.0 hPa WSW 6.9 km/h 11.6 km/h 87 % 0.0 mm
17:10 10.0 °C 7.9 °C 1028.0 hPa WSW 6.4 km/h 11.6 km/h 87 % 0.0 mm
17:15 9.9 °C 7.8 °C 1028.0 hPa WSW 8.7 km/h 10.5 km/h 87 % 0.0 mm
17:20 9.6 °C 7.7 °C 1028.0 hPa WSW 6.4 km/h 10.5 km/h 88 % 0.0 mm
17:25 9.3 °C 7.4 °C 1028.0 hPa WSW 7.2 km/h 9.3 km/h 88 % 0.0 mm
17:31 9.2 °C 7.5 °C 1028.0 hPa WSW 7.9 km/h 9.0 km/h 89 % 0.0 mm
17:36 9.0 °C 7.3 °C 1028.0 hPa WSW 6.4 km/h 9.0 km/h 89 % 0.0 mm
17:41 8.8 °C 7.1 °C 1028.0 hPa West 6.1 km/h 9.0 km/h 89 % 0.0 mm
17:46 8.7 °C 7.2 °C 1028.0 hPa West 7.6 km/h 8.7 km/h 90 % 0.0 mm
17:51 8.5 °C 7.0 °C 1028.0 hPa West 7.6 km/h 8.7 km/h 90 % 0.0 mm
17:56 8.3 °C 6.8 °C 1028.0 hPa WSW 6.1 km/h 8.7 km/h 90 % 0.0 mm
18:01 8.2 °C 6.7 °C 1028.0 hPa West 6.4 km/h 8.7 km/h 90 % 0.0 mm
18:06 8.1 °C 6.6 °C 1028.0 hPa West 5.8 km/h 7.9 km/h 90 % 0.0 mm
18:11 8.1 °C 6.7 °C 1027.0 hPa West 5.0 km/h 10.1 km/h 91 % 0.0 mm
18:16 7.8 °C 6.4 °C 1027.0 hPa West 6.9 km/h 10.1 km/h 91 % 0.0 mm
18:21 7.8 °C 6.4 °C 1027.0 hPa West 8.7 km/h 10.5 km/h 91 % 0.0 mm
18:26 7.7 °C 6.5 °C 1028.0 hPa West 9.0 km/h 10.5 km/h 92 % 0.0 mm
18:31 7.6 °C 6.3 °C 1028.0 hPa West 8.7 km/h 10.1 km/h 92 % 0.0 mm
18:36 7.3 °C 6.1 °C 1028.0 hPa West 5.0 km/h 10.5 km/h 92 % 0.0 mm
18:41 7.3 °C 6.1 °C 1028.0 hPa West 4.3 km/h 10.5 km/h 92 % 0.0 mm
18:46 7.1 °C 5.8 °C 1028.0 hPa West 7.9 km/h 9.3 km/h 92 % 0.0 mm
18:51 6.9 °C 5.7 °C 1028.0 hPa WNW 6.1 km/h 9.3 km/h 92 % 0.0 mm
18:56 6.9 °C 5.9 °C 1028.0 hPa West 4.3 km/h 9.0 km/h 93 % 0.0 mm
19:01 6.8 °C 5.8 °C 1028.0 hPa WSW 5.0 km/h 9.0 km/h 93 % 0.0 mm
19:06 6.4 °C 5.3 °C 1028.0 hPa West 6.1 km/h 7.9 km/h 92 % 0.0 mm
19:11 6.4 °C 5.4 °C 1028.0 hPa West 8.7 km/h 9.3 km/h 93 % 0.0 mm
19:16 6.4 °C 5.4 °C 1028.0 hPa West 6.9 km/h 9.3 km/h 93 % 0.0 mm
19:21 6.4 °C 5.5 °C 1028.0 hPa West 5.0 km/h 8.7 km/h 94 % 0.0 mm
19:26 6.4 °C 5.5 °C 1028.0 hPa West 6.4 km/h 9.0 km/h 94 % 0.0 mm
19:31 6.4 °C 5.5 °C 1028.0 hPa West 6.4 km/h 10.5 km/h 94 % 0.0 mm
19:36 6.4 °C 5.5 °C 1028.0 hPa WSW 7.9 km/h 10.5 km/h 94 % 0.0 mm
19:41 6.3 °C 5.4 °C 1029.0 hPa West 7.9 km/h 9.7 km/h 94 % 0.0 mm
19:46 6.3 °C 5.4 °C 1029.0 hPa West 9.7 km/h 10.5 km/h 94 % 0.0 mm
19:51 6.3 °C 5.6 °C 1029.0 hPa West 6.9 km/h 10.5 km/h 95 % 0.0 mm
19:56 6.3 °C 5.6 °C 1028.0 hPa West 6.9 km/h 10.5 km/h 95 % 0.0 mm
20:01 6.2 °C 5.4 °C 1028.0 hPa WSW 6.1 km/h 8.7 km/h 95 % 0.0 mm
20:06 6.2 °C 5.4 °C 1028.0 hPa WSW 9.0 km/h 9.3 km/h 95 % 0.0 mm
20:11 6.2 °C 5.4 °C 1029.0 hPa West 7.9 km/h 9.3 km/h 95 % 0.0 mm
20:16 6.3 °C 5.6 °C 1029.0 hPa West 5.0 km/h 9.0 km/h 95 % 0.0 mm
20:21 6.3 °C 5.6 °C 1029.0 hPa West 6.9 km/h 7.9 km/h 95 % 0.0 mm
20:27 6.3 °C 5.7 °C 1028.0 hPa West 5.0 km/h 7.6 km/h 96 % 0.0 mm
20:32 6.4 °C 5.8 °C 1028.0 hPa West 7.9 km/h 7.9 km/h 96 % 0.0 mm
20:37 6.4 °C 5.8 °C 1028.0 hPa WNW 6.4 km/h 8.7 km/h 96 % 0.0 mm
20:42 6.4 °C 5.8 °C 1028.0 hPa West 5.8 km/h 8.7 km/h 96 % 0.0 mm
20:47 6.3 °C 5.7 °C 1028.0 hPa WSW 7.6 km/h 7.9 km/h 96 % 0.0 mm
20:52 6.2 °C 5.6 °C 1028.0 hPa WSW 5.8 km/h 7.6 km/h 96 % 0.0 mm
20:57 6.1 °C 5.5 °C 1029.0 hPa WSW 5.0 km/h 6.9 km/h 96 % 0.0 mm
21:02 6.0 °C 5.4 °C 1029.0 hPa WSW 6.4 km/h 7.6 km/h 96 % 0.0 mm
21:07 5.9 °C 5.3 °C 1028.0 hPa WSW 8.7 km/h 9.0 km/h 96 % 0.0 mm
21:12 6.0 °C 5.4 °C 1028.0 hPa WSW 8.7 km/h 10.5 km/h 96 % 0.0 mm
21:17 6.1 °C 5.5 °C 1028.0 hPa WSW 9.3 km/h 11.6 km/h 96 % 0.0 mm
21:27 6.4 °C 5.9 °C 1028.0 hPa West 9.3 km/h 13.0 km/h 97 % 0.0 mm
21:32 6.4 °C 6.0 °C 1028.0 hPa West 10.8 km/h 13.0 km/h 97 % 0.0 mm
21:37 6.6 °C 6.1 °C 1028.0 hPa WSW 10.1 km/h 13.7 km/h 97 % 0.0 mm
21:42 6.7 °C 6.2 °C 1028.0 hPa WSW 9.7 km/h 13.7 km/h 97 % 0.0 mm
21:47 6.7 °C 6.2 °C 1028.0 hPa West 9.0 km/h 10.5 km/h 97 % 0.0 mm
21:52 6.7 °C 6.2 °C 1028.0 hPa West 6.9 km/h 10.5 km/h 97 % 0.0 mm
21:57 6.7 °C 6.2 °C 1028.0 hPa West 6.4 km/h 9.3 km/h 97 % 0.0 mm
22:02 6.6 °C 6.1 °C 1028.0 hPa WSW 6.9 km/h 9.3 km/h 97 % 0.0 mm
22:07 6.6 °C 6.1 °C 1028.0 hPa WSW 6.9 km/h 9.7 km/h 97 % 0.0 mm
22:12 6.6 °C 6.1 °C 1028.0 hPa WSW 9.0 km/h 10.8 km/h 97 % 0.0 mm
22:17 6.6 °C 6.1 °C 1028.0 hPa WSW 9.0 km/h 10.8 km/h 97 % 0.0 mm
22:22 6.4 °C 6.0 °C 1028.0 hPa West 10.1 km/h 11.9 km/h 97 % 0.0 mm
22:27 6.6 °C 6.1 °C 1028.0 hPa West 9.3 km/h 12.2 km/h 97 % 0.0 mm
22:32 6.6 °C 6.1 °C 1028.0 hPa WSW 11.9 km/h 12.2 km/h 97 % 0.0 mm
22:38 6.6 °C 6.1 °C 1027.0 hPa WSW 10.5 km/h 12.2 km/h 97 % 0.0 mm
22:43 6.7 °C 6.2 °C 1027.0 hPa West 10.1 km/h 13.0 km/h 97 % 0.0 mm
22:48 6.7 °C 6.2 °C 1027.0 hPa WSW 9.0 km/h 13.0 km/h 97 % 0.0 mm
22:53 6.7 °C 6.2 °C 1027.0 hPa West 12.2 km/h 12.2 km/h 97 % 0.0 mm
22:58 6.7 °C 6.4 °C 1027.0 hPa West 7.2 km/h 12.2 km/h 98 % 0.0 mm
23:03 6.8 °C 6.4 °C 1027.0 hPa WSW 10.5 km/h 13.0 km/h 98 % 0.0 mm
23:08 6.7 °C 6.4 °C 1027.0 hPa WSW 9.3 km/h 13.0 km/h 98 % 0.0 mm
23:13 6.7 °C 6.4 °C 1027.0 hPa West 7.9 km/h 12.2 km/h 98 % 0.0 mm
23:18 6.7 °C 6.4 °C 1027.0 hPa WSW 6.4 km/h 10.1 km/h 98 % 0.0 mm
23:23 6.6 °C 6.3 °C 1027.0 hPa West 7.9 km/h 10.1 km/h 98 % 0.0 mm
23:28 6.7 °C 6.4 °C 1027.0 hPa West 7.9 km/h 10.5 km/h 98 % 0.0 mm
23:33 6.7 °C 6.4 °C 1027.0 hPa West 7.9 km/h 10.5 km/h 98 % 0.0 mm
23:38 6.6 °C 6.3 °C 1027.0 hPa West 7.9 km/h 10.1 km/h 98 % 0.0 mm
23:43 6.6 °C 6.3 °C 1027.0 hPa WSW 6.9 km/h 9.3 km/h 98 % 0.0 mm
23:48 6.4 °C 6.2 °C 1027.0 hPa West 7.9 km/h 9.3 km/h 98 % 0.0 mm
23:53 6.4 °C 5.9 °C 1027.0 hPa WSW 6.9 km/h 9.0 km/h 97 % 0.0 mm
23:58 6.3 °C 5.8 °C 1027.0 hPa West 6.4 km/h 7.9 km/h 97 % 0.0 mm
Le Gheer Warneton
Courtoisie de Weather Underground - 2.5 mb

Mise a jour : 16-12-17 12:03:11
Généré par Cumulus 1.9.4 (1099)